Time;durP1;ratioP1;P1;durP2;ratioP2;P2;SDS_P1;SDS_P2;PMS_P1;PMS_P2;Temp;Humidity;BMP_temperature;BMP_pressure;BME280_temperature;BME280_humidity;BME280_pressure;Samples;Min_cycle;Max_cycle;Signal;HPM_P1;HPM_P2
2021/12/13 00:02:40;;;;;;;135.30;36.00;;;9.50;99.90;;;;;;5060722;28;20060;-47
2021/12/13 00:05:15;;;;;;;206.23;41.47;;;9.40;99.90;;;;;;5035588;28;20064;-47
2021/12/13 00:07:43;;;;;;;181.50;40.63;;;9.50;99.90;;;;;;5043376;28;20577;-48
2021/12/13 00:10:20;;;;;;;190.13;43.22;;;9.50;99.90;;;;;;5057639;28;20053;-47
2021/12/13 00:12:58;;;;;;;213.45;44.20;;;9.40;99.90;;;;;;5059976;28;20056;-47
2021/12/13 00:15:32;;;;;;;202.13;45.40;;;9.40;99.90;;;;;;5062569;28;20053;-47
2021/12/13 00:18:00;;;;;;;237.95;45.60;;;9.40;99.90;;;;;;5062776;28;20091;-47
2021/12/13 00:20:36;;;;;;;245.05;47.53;;;9.40;99.90;;;;;;5062940;28;20057;-49
2021/12/13 00:23:16;;;;;;;281.52;49.42;;;9.40;99.90;;;;;;5045890;28;20052;-47
2021/12/13 00:25:45;;;;;;;188.15;43.08;;;9.40;99.90;;;;;;5055231;28;20067;-50
2021/12/13 00:28:17;;;;;;;185.95;42.33;;;9.40;99.90;;;;;;5055855;28;20052;-47
2021/12/13 00:31:06;;;;;;;134.73;37.67;;;9.50;99.90;;;;;;5057349;28;20057;-47
2021/12/13 00:34:14;;;;;;;162.40;41.38;;;9.50;99.90;;;;;;5056198;28;20101;-48
2021/12/13 00:36:45;;;;;;;163.75;39.03;;;9.40;99.90;;;;;;5062165;28;20516;-47
2021/12/13 00:39:24;;;;;;;136.00;36.78;;;9.40;99.90;;;;;;5062787;28;20118;-48
2021/12/13 00:41:51;;;;;;;162.70;40.50;;;9.40;99.90;;;;;;5060087;28;20575;-47
2021/12/13 00:44:28;;;;;;;128.50;38.05;;;9.50;99.90;;;;;;5060611;28;20073;-47
2021/12/13 00:46:57;;;;;;;124.35;37.10;;;9.50;99.90;;;;;;5062031;28;20684;-47
2021/12/13 00:49:27;;;;;;;119.57;35.90;;;9.50;99.90;;;;;;5060163;28;20063;-47
2021/12/13 00:51:56;;;;;;;94.03;31.67;;;9.50;99.90;;;;;;5061765;28;20044;-47
2021/12/13 00:54:51;;;;;;;102.55;33.90;;;9.50;99.90;;;;;;5062649;28;20072;-47
2021/12/13 00:57:41;;;;;;;98.18;34.20;;;9.50;99.90;;;;;;5048987;28;20056;-47
2021/12/13 01:00:21;;;;;;;91.35;32.80;;;9.50;99.90;;;;;;5061078;28;20054;-47
2021/12/13 01:03:36;;;;;;;71.43;29.38;;;9.50;99.90;;;;;;5058765;28;20069;-48
2021/12/13 01:06:20;;;;;;;;;;;9.50;99.90;;;;;;5000986;28;20153;-49
2021/12/13 01:09:23;;;;;;;75.28;30.23;;;9.50;99.90;;;;;;4992569;28;19999;-49
2021/12/13 01:12:04;;;;;;;77.35;31.27;;;9.60;99.90;;;;;;4989813;28;20504;-49
2021/12/13 01:14:35;;;;;;;91.60;34.90;;;9.50;99.90;;;;;;4982112;28;20057;-47
2021/12/13 01:17:22;;;;;;;83.22;32.63;;;9.50;99.90;;;;;;4976306;28;20093;-46
2021/12/13 01:20:00;;;;;;;88.78;35.80;;;9.50;99.90;;;;;;4999740;28;20053;-46
2021/12/13 01:27:51;;;;;;;89.72;35.80;;;9.60;99.90;;;;;;5000095;28;20054;-48
2021/12/13 01:30:37;;;;;;;81.95;33.92;;;9.60;99.90;;;;;;5000475;28;20128;-47
2021/12/13 01:33:06;;;;;;;83.25;33.42;;;9.60;99.90;;;;;;5000482;28;20093;-47
2021/12/13 01:35:36;;;;;;;90.93;35.60;;;9.50;99.90;;;;;;4999435;28;20627;-47
2021/12/13 01:38:34;;;;;;;86.95;34.30;;;9.50;99.90;;;;;;4983111;28;20049;-47
2021/12/13 01:41:08;;;;;;;86.30;33.47;;;9.60;99.90;;;;;;4996793;28;20062;-47
2021/12/13 01:43:36;;;;;;;73.97;31.10;;;9.50;99.90;;;;;;5040859;28;20065;-47
2021/12/13 01:46:09;;;;;;;92.85;33.92;;;9.50;99.90;;;;;;5060974;28;20075;-47
2021/12/13 01:48:39;;;;;;;75.40;31.48;;;9.50;99.90;;;;;;5060497;28;20121;-46
2021/12/13 01:51:11;;;;;;;72.25;28.27;;;9.50;99.90;;;;;;5060359;28;20089;-47
2021/12/13 01:53:57;;;;;;;76.40;30.63;;;9.60;99.90;;;;;;5057336;28;20491;-47
2021/12/13 01:56:40;;;;;;;71.63;29.08;;;9.50;99.90;;;;;;5059154;28;20056;-49
2021/12/13 01:59:40;;;;;;;70.43;27.42;;;9.50;99.90;;;;;;5059628;28;20048;-50
2021/12/13 02:02:14;;;;;;;65.63;28.08;;;9.50;99.90;;;;;;5056862;28;20056;-47
2021/12/13 02:04:42;;;;;;;74.28;27.38;;;9.50;99.90;;;;;;5070757;28;20048;-47
2021/12/13 02:07:09;;;;;;;60.25;26.63;;;9.50;99.90;;;;;;5063206;28;20043;-47
2021/12/13 02:09:42;;;;;;;63.47;27.83;;;9.50;99.90;;;;;;5051061;28;20061;-47
2021/12/13 02:12:14;;;;;;;61.25;27.70;;;9.40;99.90;;;;;;5067825;28;20904;-48
2021/12/13 02:16:55;;;;;;;57.72;26.02;;;9.40;99.90;;;;;;5079807;28;20167;-46
2021/12/13 02:17:37;;;;;;;58.47;23.90;;;9.40;99.90;;;;;;5084787;28;20080;-50
2021/12/13 02:20:21;;;;;;;67.75;27.13;;;9.40;99.90;;;;;;5058963;28;20065;-49
2021/12/13 02:22:53;;;;;;;61.10;26.70;;;9.40;99.90;;;;;;5064563;28;20058;-49
2021/12/13 02:25:21;;;;;;;69.05;25.45;;;9.40;99.90;;;;;;5085233;28;20488;-50
2021/12/13 02:28:13;;;;;;;53.63;24.73;;;9.30;99.90;;;;;;5080358;28;20054;-49
2021/12/13 02:30:44;;;;;;;52.85;22.25;;;9.40;99.90;;;;;;5062651;28;20056;-47
2021/12/13 02:33:15;;;;;;;56.95;22.95;;;9.30;99.90;;;;;;5067079;28;20044;-47
2021/12/13 02:35:45;;;;;;;59.55;22.38;;;9.40;99.90;;;;;;5071030;28;20055;-50
2021/12/13 02:38:14;;;;;;;54.90;21.52;;;9.40;99.90;;;;;;5050186;28;20076;-48
2021/12/13 02:40:41;;;;;;;50.47;20.08;;;9.40;99.90;;;;;;5071286;28;20059;-48
2021/12/13 02:43:10;;;;;;;49.28;20.45;;;9.30;99.90;;;;;;5050078;28;20089;-49
2021/12/13 02:45:43;;;;;;;56.65;19.52;;;9.30;99.90;;;;;;5068460;28;20057;-49
2021/12/13 02:48:44;;;;;;;53.03;19.83;;;9.30;99.90;;;;;;5069866;28;20071;-47
2021/12/13 02:51:13;;;;;;;58.85;20.50;;;9.30;99.90;;;;;;4974427;28;20062;-47
2021/12/13 02:53:46;;;;;;;50.22;18.60;;;9.30;99.90;;;;;;4968398;28;20086;-50
2021/12/13 02:56:16;;;;;;;45.03;16.40;;;9.30;99.90;;;;;;4965485;28;20138;-47
2021/12/13 02:58:43;;;;;;;40.10;17.42;;;9.20;99.90;;;;;;4981808;28;20425;-47
2021/12/13 03:01:18;;;;;;;38.70;17.15;;;9.20;99.90;;;;;;4981608;28;20576;-46
2021/12/13 03:03:49;;;;;;;35.42;16.23;;;9.20;99.90;;;;;;4971226;28;20066;-46
2021/12/13 03:06:18;;;;;;;34.72;16.27;;;9.20;99.90;;;;;;4964557;28;20253;-49
2021/12/13 03:08:51;;;;;;;39.50;16.05;;;9.20;99.90;;;;;;4947267;28;20510;-47
2021/12/13 03:11:27;;;;;;;41.22;16.45;;;9.20;99.90;;;;;;4974744;28;20636;-47
2021/12/13 03:14:21;;;;;;;34.78;14.57;;;9.20;99.90;;;;;;4974373;28;20061;-48
2021/12/13 03:16:50;;;;;;;34.15;14.85;;;9.20;99.90;;;;;;4943694;29;20332;-47
2021/12/13 03:19:35;;;;;;;31.08;14.13;;;9.20;99.90;;;;;;4938242;29;21004;-48
2021/12/13 03:22:51;;;;;;;31.23;13.75;;;9.10;99.90;;;;;;4912969;29;20047;-47
2021/12/13 03:25:54;;;;;;;31.52;13.90;;;9.20;99.90;;;;;;4858857;29;20053;-47
2021/12/13 03:29:08;;;;;;;35.08;13.40;;;9.10;99.90;;;;;;4892277;29;20068;-50
2021/12/13 03:31:40;;;;;;;31.60;11.20;;;9.10;99.90;;;;;;4889125;29;20068;-49
2021/12/13 03:34:14;;;;;;;27.98;11.48;;;9.20;99.90;;;;;;4886308;29;20064;-53
2021/12/13 03:36:51;;;;;;;21.42;11.10;;;9.10;99.90;;;;;;4886153;29;20060;-49
2021/12/13 03:39:39;;;;;;;18.08;10.15;;;9.10;99.90;;;;;;4876481;29;20087;-48
2021/12/13 03:42:11;;;;;;;22.33;8.90;;;9.10;99.90;;;;;;4885092;29;20575;-47
2021/12/13 03:44:47;;;;;;;17.95;8.82;;;9.10;99.90;;;;;;4885698;29;20057;-47
2021/12/13 03:47:31;;;;;;;17.80;8.63;;;9.10;99.90;;;;;;4874080;29;20619;-48
2021/12/13 03:50:02;;;;;;;21.35;8.45;;;9.20;99.90;;;;;;4858182;29;20147;-47
2021/12/13 03:52:30;;;;;;;15.30;7.38;;;9.10;99.90;;;;;;4885646;29;20056;-46
2021/12/13 03:55:00;;;;;;;14.73;7.20;;;9.10;99.90;;;;;;4869352;29;20471;-47
2021/12/13 03:57:29;;;;;;;12.48;8.27;;;9.10;99.90;;;;;;4885703;29;20063;-47
2021/12/13 03:59:56;;;;;;;13.15;7.75;;;9.00;99.90;;;;;;4889262;28;20474;-48
2021/12/13 04:02:32;;;;;;;14.00;7.78;;;9.10;99.90;;;;;;4967485;28;20052;-48
2021/12/13 04:05:04;;;;;;;17.45;6.65;;;9.00;99.90;;;;;;4975109;28;20320;-47
2021/12/13 04:07:34;;;;;;;12.18;6.40;;;9.10;99.90;;;;;;4999931;28;20068;-52
2021/12/13 04:10:09;;;;;;;7.78;5.25;;;9.00;99.90;;;;;;5065187;28;20410;-48
2021/12/13 04:12:43;;;;;;;13.93;6.32;;;9.10;99.90;;;;;;5079875;28;20126;-50
2021/12/13 04:15:25;;;;;;;10.07;6.40;;;9.10;99.90;;;;;;5052306;28;20056;-47
2021/12/13 04:18:12;;;;;;;11.65;6.60;;;9.00;99.90;;;;;;5049929;28;20067;-47
2021/12/13 04:20:40;;;;;;;15.90;7.30;;;9.10;99.90;;;;;;5048318;28;20415;-48
2021/12/13 04:23:12;;;;;;;16.65;8.07;;;9.00;99.90;;;;;;5082450;28;20044;-47
2021/12/13 04:25:41;;;;;;;14.25;7.82;;;9.00;99.90;;;;;;5075106;28;20528;-50
2021/12/13 04:28:10;;;;;;;12.48;7.63;;;9.10;99.90;;;;;;5082519;28;20048;-48
2021/12/13 04:30:50;;;;;;;18.40;8.40;;;9.00;99.90;;;;;;5081761;28;20052;-47
2021/12/13 04:33:51;;;;;;;10.90;6.95;;;9.00;99.90;;;;;;5081723;28;20470;-49
2021/12/13 04:36:22;;;;;;;12.00;7.65;;;9.10;99.90;;;;;;5051257;28;20143;-48
2021/12/13 04:38:52;;;;;;;11.93;6.80;;;9.00;99.90;;;;;;5083025;28;20159;-49
2021/12/13 04:41:36;;;;;;;12.57;7.32;;;9.00;99.90;;;;;;5082800;28;20122;-50
2021/12/13 04:44:16;;;;;;;14.35;7.88;;;9.00;99.90;;;;;;5065470;28;20055;-47
2021/12/13 04:46:44;;;;;;;12.48;8.02;;;9.00;99.90;;;;;;5063383;28;20519;-50
2021/12/13 04:49:14;;;;;;;14.43;10.25;;;9.00;99.90;;;;;;5082038;28;20070;-50
2021/12/13 04:51:45;;;;;;;12.90;8.07;;;9.00;99.90;;;;;;5079689;28;20060;-51
2021/12/13 04:54:14;;;;;;;16.20;8.70;;;9.00;99.90;;;;;;5061247;28;20172;-46
2021/12/13 04:56:41;;;;;;;20.42;8.52;;;9.00;99.90;;;;;;5080577;28;20048;-47
2021/12/13 04:59:10;;;;;;;16.75;9.35;;;9.00;99.90;;;;;;5080827;28;20062;-47
2021/12/13 05:01:37;;;;;;;13.60;8.30;;;9.00;99.90;;;;;;5081096;28;20544;-47
2021/12/13 05:04:05;;;;;;;16.75;9.30;;;9.00;99.90;;;;;;5069175;28;20090;-46
2021/12/13 05:06:35;;;;;;;16.23;9.65;;;9.00;99.90;;;;;;5064090;28;20048;-47
2021/12/13 05:09:05;;;;;;;20.55;9.60;;;9.00;99.90;;;;;;5056166;28;20063;-47
2021/12/13 05:11:44;;;;;;;16.05;9.52;;;9.00;99.90;;;;;;5055893;28;20170;-47
2021/12/13 05:14:11;;;;;;;16.15;9.07;;;8.90;99.90;;;;;;5063917;28;20063;-47
2021/12/13 05:16:39;;;;;;;17.70;9.93;;;8.90;99.90;;;;;;5072240;28;20059;-47
2021/12/13 05:19:07;;;;;;;14.60;8.23;;;9.00;99.90;;;;;;5058877;28;20514;-47
2021/12/13 05:21:38;;;;;;;13.70;9.52;;;8.90;99.90;;;;;;5075510;28;20072;-47
2021/12/13 05:24:11;;;;;;;13.80;9.65;;;8.90;99.90;;;;;;5061626;28;20506;-46
2021/12/13 05:27:00;;;;;;;14.70;9.48;;;8.90;99.90;;;;;;5045515;28;20052;-46
2021/12/13 05:29:28;;;;;;;17.20;11.07;;;8.90;99.90;;;;;;5063708;28;20063;-48
2021/12/13 05:32:21;;;;;;;19.63;11.30;;;8.80;99.90;;;;;;5059736;28;20052;-47
2021/12/13 05:34:49;;;;;;;19.13;11.98;;;8.90;99.90;;;;;;5062608;28;20055;-47
2021/12/13 05:37:17;;;;;;;21.23;12.45;;;8.80;99.90;;;;;;5026075;28;20059;-48
2021/12/13 05:39:57;;;;;;;20.90;12.43;;;8.90;99.90;;;;;;5025415;28;20408;-48
2021/12/13 05:42:38;;;;;;;23.98;14.00;;;8.80;99.90;;;;;;5050009;28;20048;-47
2021/12/13 05:45:06;;;;;;;22.10;13.63;;;8.80;99.90;;;;;;5064113;28;20109;-49
2021/12/13 05:47:33;;;;;;;23.42;13.18;;;8.90;99.90;;;;;;5066546;28;20117;-48
2021/12/13 05:50:00;;;;;;;23.60;13.23;;;8.90;99.90;;;;;;5067036;28;20048;-47
2021/12/13 05:52:33;;;;;;;29.35;14.43;;;8.90;99.90;;;;;;5048044;28;20044;-47
2021/12/13 05:55:02;;;;;;;;;;;8.80;99.90;;;;;;5067413;28;20052;-47
2021/12/13 05:57:42;;;;;;;22.10;12.52;;;8.90;99.90;;;;;;5068717;28;19946;-49
2021/12/13 06:00:11;;;;;;;24.15;12.65;;;8.80;99.90;;;;;;5066018;28;20048;-55
2021/12/13 06:02:47;;;;;;;20.63;13.30;;;8.80;99.90;;;;;;5047778;28;20154;-50
2021/12/13 06:05:25;;;;;;;19.63;12.35;;;8.80;99.90;;;;;;5048145;28;20060;-49
2021/12/13 06:08:02;;;;;;;23.38;12.60;;;8.80;99.90;;;;;;5065466;28;20410;-49
2021/12/13 06:10:50;;;;;;;20.52;12.30;;;8.80;99.90;;;;;;5047355;28;20087;-47
2021/12/13 06:13:46;;;;;;;19.55;11.88;;;8.80;99.90;;;;;;5029790;28;20060;-49
2021/12/13 06:16:31;;;;;;;20.20;12.38;;;8.80;99.90;;;;;;5027943;28;20075;-48
2021/12/13 06:19:21;;;;;;;20.73;12.35;;;8.80;99.90;;;;;;5046857;28;20075;-47
2021/12/13 06:22:07;;;;;;;19.77;12.82;;;8.80;99.90;;;;;;5064715;28;20102;-47
2021/12/13 06:24:45;;;;;;;19.02;11.65;;;8.80;99.90;;;;;;5046970;28;20064;-47
2021/12/13 06:27:16;;;;;;;21.40;11.95;;;8.80;99.90;;;;;;5064433;28;20477;-47
2021/12/13 06:30:04;;;;;;;22.65;12.35;;;8.80;99.90;;;;;;5064782;28;20086;-47
2021/12/13 06:32:49;;;;;;;20.02;12.55;;;8.80;99.90;;;;;;5062776;28;20378;-47
2021/12/13 06:35:42;;;;;;;17.92;13.07;;;8.80;99.90;;;;;;5063982;28;20510;-47
2021/12/13 06:38:44;;;;;;;20.60;13.23;;;8.80;99.90;;;;;;5063821;28;20553;-47
2021/12/13 06:41:12;;;;;;;19.35;13.35;;;8.70;99.90;;;;;;4954384;28;20054;-46
2021/12/13 06:43:56;;;;;;;21.63;13.77;;;8.80;99.90;;;;;;4946552;28;20077;-47
2021/12/13 06:46:22;;;;;;;21.30;14.10;;;8.80;99.90;;;;;;4946471;28;20101;-47
2021/12/13 06:48:59;;;;;;;24.85;15.07;;;8.80;99.90;;;;;;4951449;28;20137;-47
2021/12/13 06:51:46;;;;;;;23.33;14.63;;;8.80;99.90;;;;;;4962416;28;20054;-49
2021/12/13 06:54:35;;;;;;;28.10;15.43;;;8.80;99.90;;;;;;4962244;28;20058;-47
2021/12/13 06:57:14;;;;;;;25.52;16.27;;;8.80;99.90;;;;;;4946979;28;20055;-47
2021/12/13 07:00:10;;;;;;;26.70;16.63;;;8.80;99.90;;;;;;4962635;28;20429;-46
2021/12/13 07:02:39;;;;;;;24.38;17.08;;;8.70;99.90;;;;;;4946257;28;20059;-50
2021/12/13 07:05:16;;;;;;;23.90;16.35;;;8.70;99.90;;;;;;4923849;29;20057;-47
2021/12/13 07:07:50;;;;;;;26.90;18.20;;;8.70;99.90;;;;;;4930090;28;20062;-49
2021/12/13 07:10:25;;;;;;;29.13;19.88;;;8.70;99.90;;;;;;4959437;28;20055;-50
2021/12/13 07:12:54;;;;;;;31.58;19.73;;;8.70;99.90;;;;;;4943593;28;20058;-54
2021/12/13 07:15:38;;;;;;;30.77;20.63;;;8.80;99.90;;;;;;5007915;28;20072;-49
2021/12/13 07:18:29;;;;;;;29.67;20.60;;;8.70;99.90;;;;;;5052510;28;20052;-47
2021/12/13 07:21:00;;;;;;;27.70;21.33;;;8.80;99.90;;;;;;5063509;28;20048;-47
2021/12/13 07:23:27;;;;;;;29.75;22.45;;;8.80;99.90;;;;;;5064212;28;20442;-47
2021/12/13 07:25:54;;;;;;;39.33;22.80;;;8.70;99.90;;;;;;5063667;28;20437;-46
2021/12/13 07:28:35;;;;;;;32.55;22.48;;;8.80;99.90;;;;;;5042756;28;20059;-46
2021/12/13 07:31:05;;;;;;;32.45;23.25;;;8.70;99.90;;;;;;5062270;28;20043;-47
2021/12/13 07:33:45;;;;;;;33.70;23.17;;;8.70;99.90;;;;;;5062816;28;20056;-47
2021/12/13 07:36:25;;;;;;;40.95;24.92;;;8.70;99.90;;;;;;5044959;28;20052;-47
2021/12/13 07:39:08;;;;;;;34.25;24.02;;;8.70;99.90;;;;;;5063723;28;20048;-47
2021/12/13 07:41:49;;;;;;;38.30;25.25;;;8.80;99.90;;;;;;5043019;28;20160;-47
2021/12/13 07:44:35;;;;;;;36.33;25.98;;;8.80;99.90;;;;;;5063341;28;20082;-47
2021/12/13 07:47:23;;;;;;;34.03;25.60;;;8.80;99.90;;;;;;5037016;28;20511;-50
2021/12/13 07:49:58;;;;;;;36.92;25.33;;;8.80;99.90;;;;;;5062365;28;20047;-47
2021/12/13 07:52:38;;;;;;;41.47;27.50;;;8.70;99.90;;;;;;5062710;28;20060;-49
2021/12/13 07:55:25;;;;;;;43.17;28.42;;;8.70;99.90;;;;;;5044329;28;20052;-47
2021/12/13 07:57:53;;;;;;;36.90;27.25;;;8.70;99.90;;;;;;5044781;28;20056;-48
2021/12/13 08:00:27;;;;;;;37.30;27.95;;;8.80;99.90;;;;;;5064007;28;20403;-50
2021/12/13 08:03:15;;;;;;;38.33;27.85;;;8.80;99.90;;;;;;5059361;28;20036;-47
2021/12/13 08:05:48;;;;;;;38.53;27.73;;;8.80;99.90;;;;;;5037988;28;20053;-47
2021/12/13 08:08:24;;;;;;;37.28;27.40;;;8.80;99.90;;;;;;5043163;28;20158;-48
2021/12/13 08:10:57;;;;;;;39.22;29.63;;;8.80;99.90;;;;;;5027885;28;20485;-50
2021/12/13 08:13:28;;;;;;;40.50;29.88;;;8.80;99.90;;;;;;5063281;28;20572;-50
2021/12/13 08:16:02;;;;;;;36.75;28.15;;;8.80;99.90;;;;;;5062984;28;20052;-48
2021/12/13 08:18:43;;;;;;;42.60;28.80;;;8.80;99.90;;;;;;5063084;28;20052;-48
2021/12/13 08:21:22;;;;;;;42.22;29.27;;;8.90;99.90;;;;;;5062766;28;20220;-48
2021/12/13 08:23:56;;;;;;;40.08;28.42;;;8.90;99.90;;;;;;5065996;28;20044;-51
2021/12/13 08:26:41;;;;;;;40.25;29.23;;;8.90;99.90;;;;;;5061814;28;20104;-53
2021/12/13 08:29:31;;;;;;;36.75;29.05;;;8.90;99.90;;;;;;5062022;28;20136;-49
2021/12/13 08:32:11;;;;;;;38.15;28.67;;;8.90;99.90;;;;;;5063689;28;20052;-50
2021/12/13 08:34:43;;;;;;;31.48;27.10;;;8.90;99.90;;;;;;5059129;28;20110;-48
2021/12/13 08:37:19;;;;;;;36.10;28.35;;;8.90;99.90;;;;;;5059664;28;20062;-46
2021/12/13 08:39:49;;;;;;;40.30;27.20;;;8.90;99.90;;;;;;5060001;28;20080;-48
2021/12/13 08:42:22;;;;;;;36.90;26.77;;;9.00;99.90;;;;;;5037408;28;20159;-51
2021/12/13 08:45:05;;;;;;;34.50;27.92;;;8.90;99.90;;;;;;5060710;28;20051;-48
2021/12/13 08:47:43;;;;;;;;;;;8.90;99.90;;;;;;5061955;28;20060;-47
2021/12/13 08:50:31;;;;;;;33.92;26.05;;;9.00;99.90;;;;;;5040817;28;19924;-48
2021/12/13 08:53:10;;;;;;;31.70;25.23;;;9.00;99.90;;;;;;5054370;28;20048;-47
2021/12/13 08:55:42;;;;;;;31.80;24.88;;;9.00;99.90;;;;;;5021287;28;20052;-47
2021/12/13 08:58:15;;;;;;;31.52;26.25;;;9.00;99.90;;;;;;5037210;28;20060;-47
2021/12/13 09:00:53;;;;;;;33.63;25.08;;;9.00;99.90;;;;;;5055651;28;20531;-47
2021/12/13 09:03:43;;;;;;;31.95;25.77;;;9.00;99.90;;;;;;5057932;28;20544;-47
2021/12/13 09:06:15;;;;;;;31.05;24.25;;;9.00;99.90;;;;;;5058854;28;20045;-47
2021/12/13 09:08:43;;;;;;;29.80;25.45;;;9.00;99.90;;;;;;5060110;28;20041;-48
2021/12/13 09:11:21;;;;;;;28.35;23.95;;;9.00;99.90;;;;;;5036064;28;20412;-48
2021/12/13 09:13:53;;;;;;;32.67;25.30;;;9.00;99.90;;;;;;5036900;28;20052;-50
2021/12/13 09:16:24;;;;;;;38.13;26.13;;;9.00;99.90;;;;;;5024874;28;20134;-47
2021/12/13 09:19:12;;;;;;;31.02;24.85;;;9.00;99.90;;;;;;5041071;28;20067;-47
2021/12/13 09:21:52;;;;;;;32.03;25.13;;;9.00;99.90;;;;;;5062931;28;20291;-47
2021/12/13 09:24:36;;;;;;;34.28;25.13;;;9.00;99.90;;;;;;5040248;28;20523;-49
2021/12/13 09:27:17;;;;;;;34.40;23.77;;;9.00;99.90;;;;;;5065495;28;20058;-47
2021/12/13 09:29:50;;;;;;;28.23;22.92;;;9.10;99.90;;;;;;5066460;28;20056;-47
2021/12/13 09:32:16;;;;;;;;;;;9.10;99.90;;;;;;5057348;28;20067;-49
2021/12/13 09:34:44;;;;;;;28.70;21.98;;;9.10;99.90;;;;;;5044537;28;20367;-49
2021/12/13 09:37:12;;;;;;;30.58;22.55;;;9.10;99.90;;;;;;5014744;28;20079;-48
2021/12/13 09:39:38;;;;;;;25.40;22.10;;;9.10;99.90;;;;;;5029487;28;20052;-48
2021/12/13 09:42:24;;;;;;;28.95;22.58;;;9.10;99.90;;;;;;5047620;28;20060;-52
2021/12/13 09:45:02;;;;;;;25.38;22.02;;;9.10;99.90;;;;;;5046258;28;20056;-47
2021/12/13 09:47:40;;;;;;;24.10;21.17;;;9.10;99.90;;;;;;5009591;28;20080;-47
2021/12/13 09:50:16;;;;;;;25.42;21.15;;;9.10;99.90;;;;;;5042783;28;20049;-50
2021/12/13 09:52:50;;;;;;;28.70;22.67;;;9.10;99.90;;;;;;5028916;28;20056;-47
2021/12/13 09:55:36;;;;;;;27.45;21.80;;;9.10;99.90;;;;;;5051142;28;20515;-48
2021/12/13 09:58:19;;;;;;;28.75;22.92;;;9.10;99.90;;;;;;5025402;28;20057;-47
2021/12/13 10:00:50;;;;;;;29.10;22.00;;;9.10;99.90;;;;;;5044242;28;20140;-48
2021/12/13 10:03:29;;;;;;;25.05;22.35;;;9.10;99.90;;;;;;5042258;28;20055;-49
2021/12/13 10:05:59;;;;;;;25.58;22.67;;;9.10;99.90;;;;;;5031421;28;20123;-47
2021/12/13 10:08:37;;;;;;;27.30;23.92;;;9.10;99.90;;;;;;5059992;28;20056;-47
2021/12/13 10:11:12;;;;;;;30.35;23.05;;;9.10;99.90;;;;;;5047543;28;20492;-50
2021/12/13 10:13:58;;;;;;;27.27;23.63;;;9.20;99.90;;;;;;5029545;28;20087;-47
2021/12/13 10:16:33;;;;;;;30.30;22.98;;;9.30;99.90;;;;;;4986305;28;20498;-47
2021/12/13 10:19:00;;;;;;;24.85;21.80;;;9.30;99.90;;;;;;4959722;28;20069;-48
2021/12/13 10:21:32;;;;;;;26.55;22.10;;;9.40;99.90;;;;;;4983213;28;20149;-47
2021/12/13 10:24:21;;;;;;;27.08;21.73;;;9.40;99.90;;;;;;4998206;28;20058;-47
2021/12/13 10:26:49;;;;;;;26.88;22.05;;;9.30;99.90;;;;;;4983758;28;20545;-47
2021/12/13 10:29:17;;;;;;;26.73;20.77;;;9.40;99.90;;;;;;4990894;28;20046;-47
2021/12/13 10:31:52;;;;;;;26.27;20.70;;;9.40;99.90;;;;;;4979263;28;20587;-48
2021/12/13 10:34:26;;;;;;;26.27;20.65;;;9.40;99.90;;;;;;4996363;28;20144;-48
2021/12/13 10:37:01;;;;;;;26.13;22.02;;;9.40;99.90;;;;;;4984141;28;20588;-51
2021/12/13 10:39:32;;;;;;;29.85;21.27;;;9.40;99.90;;;;;;5000238;28;20219;-48
2021/12/13 10:42:02;;;;;;;28.33;21.83;;;9.40;99.90;;;;;;5000128;28;20053;-47
2021/12/13 10:44:31;;;;;;;22.25;19.48;;;9.40;99.90;;;;;;5002001;28;20183;-50
2021/12/13 10:47:05;;;;;;;24.65;20.85;;;9.40;99.90;;;;;;5015644;28;20075;-50
2021/12/13 10:49:33;;;;;;;28.50;21.00;;;9.40;99.90;;;;;;5028305;28;20414;-50
2021/12/13 10:52:10;;;;;;;29.48;21.92;;;9.40;99.90;;;;;;5045477;28;20073;-50
2021/12/13 10:54:51;;;;;;;24.92;21.45;;;9.40;99.90;;;;;;5026584;28;20088;-47
2021/12/13 10:57:31;;;;;;;28.20;21.70;;;9.40;99.90;;;;;;5047275;28;20052;-47
2021/12/13 10:59:58;;;;;;;27.88;21.50;;;9.50;99.90;;;;;;5024232;28;20056;-49
2021/12/13 11:02:29;;;;;;;27.98;21.88;;;9.50;99.90;;;;;;5042866;28;20089;-48
2021/12/13 11:05:16;;;;;;;27.60;20.90;;;9.50;99.90;;;;;;5037994;28;20179;-46
2021/12/13 11:07:43;;;;;;;28.05;22.40;;;9.50;99.90;;;;;;5044190;28;20595;-48
2021/12/13 11:10:18;;;;;;;26.63;21.70;;;9.50;99.90;;;;;;5042420;28;20057;-47
2021/12/13 11:12:52;;;;;;;27.92;21.75;;;9.50;99.90;;;;;;5024681;28;20056;-47
2021/12/13 11:15:25;;;;;;;28.65;21.55;;;9.60;99.90;;;;;;5025750;28;20494;-47
2021/12/13 11:17:52;;;;;;;30.13;20.73;;;9.60;99.90;;;;;;5043979;28;20041;-48
2021/12/13 11:20:28;;;;;;;26.92;21.15;;;9.60;99.90;;;;;;5038328;28;20155;-48
2021/12/13 11:22:54;;;;;;;26.42;19.95;;;9.60;99.90;;;;;;5037682;28;20057;-49
2021/12/13 11:25:27;;;;;;;26.00;20.73;;;9.70;99.90;;;;;;5041779;28;20048;-47
2021/12/13 11:27:54;;;;;;;27.13;20.00;;;9.70;99.90;;;;;;5025350;28;20079;-47
2021/12/13 11:30:24;;;;;;;27.67;20.30;;;9.70;99.90;;;;;;5041226;28;20076;-47
2021/12/13 11:32:56;;;;;;;24.40;20.10;;;9.70;99.90;;;;;;5034769;28;20460;-47
2021/12/13 11:35:52;;;;;;;27.17;20.08;;;9.70;99.90;;;;;;5062748;28;20044;-49
2021/12/13 11:38:56;;;;;;;31.65;21.02;;;9.80;99.90;;;;;;5041223;28;20052;-50
2021/12/13 11:41:59;;;;;;;29.73;19.70;;;9.80;99.90;;;;;;5059771;28;20053;-47
2021/12/13 11:45:07;;;;;;;26.17;17.65;;;9.80;99.90;;;;;;5061699;28;20051;-48
2021/12/13 11:48:08;;;;;;;27.45;18.60;;;9.80;99.90;;;;;;5062089;28;20373;-48
2021/12/13 11:51:13;;;;;;;26.95;20.45;;;9.80;99.90;;;;;;4937538;28;20063;-48
2021/12/13 11:53:42;;;;;;;30.58;19.83;;;9.80;99.90;;;;;;4943653;28;20548;-47
2021/12/13 11:56:38;;;;;;;27.58;18.05;;;9.80;99.90;;;;;;4934186;28;20942;-48
2021/12/13 11:59:16;;;;;;;30.75;18.70;;;9.80;99.90;;;;;;4950519;28;20806;-47
2021/12/13 12:02:06;;;;;;;28.92;18.35;;;9.80;99.90;;;;;;4935341;28;20138;-48
2021/12/13 12:05:09;;;;;;;23.25;17.83;;;9.80;99.90;;;;;;4935748;28;20062;-51
2021/12/13 12:08:11;;;;;;;28.03;19.43;;;9.80;99.90;;;;;;4924950;29;20055;-50
2021/12/13 12:10:56;;;;;;;28.23;20.73;;;9.80;99.90;;;;;;4939802;28;20051;-49
2021/12/13 12:13:39;;;;;;;24.90;18.60;;;9.80;99.90;;;;;;4908898;29;20051;-47
2021/12/13 12:16:07;;;;;;;;;;;9.80;99.90;;;;;;4938222;29;20110;-47
2021/12/13 12:18:39;;;;;;;25.92;18.17;;;9.70;99.90;;;;;;4942019;28;19926;-48
2021/12/13 12:21:30;;;;;;;25.77;17.50;;;9.80;99.90;;;;;;4941644;28;20055;-47
2021/12/13 12:24:07;;;;;;;26.67;17.55;;;9.80;99.90;;;;;;4926550;29;20047;-47
2021/12/13 12:26:34;;;;;;;23.52;17.48;;;9.80;99.90;;;;;;4938982;28;20478;-49
2021/12/13 12:29:03;;;;;;;28.33;19.42;;;9.90;99.90;;;;;;5060078;28;20045;-48
2021/12/13 12:31:31;;;;;;;25.25;19.15;;;9.80;99.90;;;;;;5060521;28;20157;-47
2021/12/13 12:33:59;;;;;;;25.52;19.00;;;9.90;99.90;;;;;;5040802;28;20059;-47
2021/12/13 12:36:46;;;;;;;25.33;18.55;;;9.90;99.90;;;;;;5043895;28;20809;-46
2021/12/13 12:39:24;;;;;;;29.25;19.98;;;9.90;99.90;;;;;;5041320;28;20048;-48
2021/12/13 12:42:16;;;;;;;27.35;18.40;;;9.80;99.90;;;;;;5017269;28;20080;-49
2021/12/13 12:44:59;;;;;;;27.35;19.15;;;9.80;99.90;;;;;;5038385;28;20060;-48
2021/12/13 12:47:57;;;;;;;26.95;19.95;;;9.70;99.90;;;;;;5044479;28;20053;-48
2021/12/13 12:50:34;;;;;;;27.77;19.08;;;9.70;99.90;;;;;;5020543;28;20063;-47
2021/12/13 12:53:06;;;;;;;28.55;20.08;;;9.70;99.90;;;;;;5025191;28;20101;-48
2021/12/13 12:55:56;;;;;;;28.92;20.33;;;9.70;99.90;;;;;;5042923;28;20542;-47
2021/12/13 12:58:30;;;;;;;27.55;19.35;;;9.70;99.90;;;;;;5011633;28;20534;-47
2021/12/13 13:01:14;;;;;;;26.85;20.58;;;9.70;99.90;;;;;;5044101;28;20495;-47
2021/12/13 13:03:40;;;;;;;28.23;18.80;;;9.80;99.90;;;;;;5040936;28;20048;-47
2021/12/13 13:06:14;;;;;;;24.73;18.92;;;9.80;99.90;;;;;;5048789;28;20052;-46
2021/12/13 13:08:45;;;;;;;24.77;20.05;;;9.80;99.90;;;;;;5059699;28;20652;-47
2021/12/13 13:11:27;;;;;;;27.67;19.42;;;9.80;99.90;;;;;;5041371;28;20055;-48
2021/12/13 13:14:10;;;;;;;27.35;18.52;;;9.80;99.90;;;;;;5042817;28;20430;-49
2021/12/13 13:16:41;;;;;;;25.45;19.42;;;9.80;99.90;;;;;;5044502;28;20088;-49
2021/12/13 13:19:09;;;;;;;25.95;18.20;;;9.80;99.90;;;;;;5044272;28;20490;-50
2021/12/13 13:21:45;;;;;;;26.30;18.88;;;9.80;99.90;;;;;;5022523;28;20057;-49
2021/12/13 13:24:12;;;;;;;28.48;19.23;;;9.80;99.90;;;;;;5026422;28;20067;-50
2021/12/13 13:26:42;;;;;;;26.60;18.27;;;9.80;99.90;;;;;;5022706;28;20158;-49
2021/12/13 13:29:12;;;;;;;26.42;18.98;;;9.80;99.90;;;;;;5019836;28;20049;-46
2021/12/13 13:31:44;;;;;;;25.70;19.30;;;9.80;99.90;;;;;;5042680;28;20131;-48
2021/12/13 13:34:14;;;;;;;26.13;19.05;;;9.90;99.90;;;;;;5059436;28;20130;-47
2021/12/13 13:36:49;;;;;;;24.15;19.08;;;9.80;99.90;;;;;;5026001;28;20056;-50